|
公曆農曆對照

機場天氣預報 (TAF)

機場天氣預報 (TAF) 載述關於某個機場在預測期內預料會出現的氣象要素。

香港天文台在 19 年 09 月 24 日 01 時 00 分最新發出的香港國際機場天氣預報

TAF VHHH 231700Z 2318/2424 VRB05KT 9999 FEW030 TX32/2406Z TN26/2322Z TN26/2422Z TEMPO 2318/2404 03010KT TEMPO 2404/2410 33010KT TEMPO 2410/2418 12010KT TEMPO 2418/2424 03010KT=

(下次更新時間:19年09月24日07時00分)

機場天氣預報電碼經解碼後:-

香港天文台發出 2019 年 09 月 23 日 18 協調世界時 至 2019 年 09 月 24 日 24 協調世界時 的機場天氣預報:
 

時間(協調世界時) 能見度 天氣狀況 雲層 雲層高度
2019 年 09 月 23 日 18 時 至 2019 年 09 月 24 日 24 時 5 海里/小時 (風向不定) 10 公里以上 無重要天氣狀況
1-2
3000 呎
2019 年 09 月 23 日 18 時 至 2019 年 09 月 24 日 04 時 期間間中 東北偏北風 (030 o) 10 海里/小時 10 公里以上 無重要天氣狀況
1-2
3000 呎
2019 年 09 月 24 日 04 時 至 10 時 期間間中 西北偏北風 (330 o) 10 海里/小時 10 公里以上 無重要天氣狀況
1-2
3000 呎
2019 年 09 月 24 日 10 時 至 18 時 期間間中 東南偏東風 (120 o) 10 海里/小時 10 公里以上 無重要天氣狀況
1-2
3000 呎
2019 年 09 月 24 日 18 時 至 24 時 期間間中 東北偏北風 (030 o) 10 海里/小時 10 公里以上 無重要天氣狀況
1-2
3000 呎

時間(協調世界時) 氣溫
2019 年 09 月 24 日 06 時
最高32 oC
2019 年 09 月 23 日 22 時
最低26 oC
2019 年 09 月 24 日 22 時
最低26 oC

份: 雲層是以估計天空被雲遮蔽之總面積來評定。把天空分為八份,1 份即是八份之一的天空被雲遮蔽,2 份即是八份之二的天空被雲遮蔽,如此類推。
  0 份 = 天朗氣清,1-2 份 = 稀薄雲層,3-4 份 = 零散雲層,5-7 份 = 疏鬆雲層,8 份 = 天色陰暗。
若想進一步瞭解機場天氣預報(TAF)的編碼,請參看剖析TAF電碼的意義
若想進一步瞭解雲,請參看香港常見的雲
 
香港國際機場航空天氣報告資料 本港地區航空天氣預報
 
版權及聲明